Time;durP1;ratioP1;P1;durP2;ratioP2;P2;SDS_P1;SDS_P2;PMS_P1;PMS_P2;Temp;Humidity;BMP_temperature;BMP_pressure;BME280_temperature;BME280_humidity;BME280_pressure;Samples;Min_cycle;Max_cycle;Signal;HPM_P1;HPM_P2
2022/04/04 00:01:44;;;;;;;9.90;7.57;;;;;;;6.95;100.00;99646.72;5071433;28;20192;-67
2022/04/04 00:04:12;;;;;;;8.77;7.67;;;;;;;6.93;100.00;99648.47;5071471;28;20287;-68
2022/04/04 00:06:40;;;;;;;8.73;7.57;;;;;;;6.88;100.00;99645.13;5071172;28;20314;-67
2022/04/04 00:09:06;;;;;;;8.73;7.83;;;;;;;6.87;100.00;99653.63;5071290;28;20614;-66
2022/04/04 00:11:33;;;;;;;9.73;8.80;;;;;;;6.80;100.00;99652.84;5071038;28;20683;-67
2022/04/04 00:14:00;;;;;;;9.27;8.30;;;;;;;6.80;100.00;99652.84;5071084;28;20204;-68
2022/04/04 00:16:27;;;;;;;7.97;7.27;;;;;;;6.78;100.00;99656.28;5068675;28;20200;-66
2022/04/04 00:18:56;;;;;;;8.23;7.53;;;;;;;6.80;100.00;99663.03;5071072;28;20231;-67
2022/04/04 00:21:23;;;;;;;9.93;8.27;;;;;;;6.81;100.00;99659.66;5071197;28;20690;-67
2022/04/04 00:23:49;;;;;;;9.77;7.67;;;;;;;6.81;100.00;99656.25;5070797;28;20310;-67
2022/04/04 00:26:16;;;;;;;7.73;7.03;;;;;;;6.78;100.00;99646.09;5071125;28;20228;-67
2022/04/04 00:28:43;;;;;;;9.03;8.17;;;;;;;6.76;100.00;99647.81;5070765;28;20220;-67
2022/04/04 00:31:10;;;;;;;7.83;7.23;;;;;;;6.76;100.00;99652.91;5071079;28;20306;-67
2022/04/04 00:33:37;;;;;;;8.07;7.30;;;;;;;6.72;100.00;99656.34;5070988;28;20207;-67
2022/04/04 00:36:06;;;;;;;7.97;6.90;;;;;;;6.74;100.00;99657.19;5070956;28;20203;-67
2022/04/04 00:38:35;;;;;;;7.80;7.23;;;;;;;6.70;100.00;99661.47;5069961;28;20218;-67
2022/04/04 00:41:07;;;;;;;8.17;6.80;;;;;;;6.72;100.00;99658.91;5070912;28;20299;-67
2022/04/04 00:43:34;;;;;;;7.23;6.57;;;;;;;6.63;100.00;99649.63;5069531;28;20200;-67
2022/04/04 00:46:01;;;;;;;7.20;6.60;;;;;;;6.69;100.00;99658.91;5070654;28;22897;-67
2022/04/04 00:48:28;;;;;;;7.33;6.63;;;;;;;6.69;100.00;99657.22;5070759;28;20228;-67
2022/04/04 00:50:56;;;;;;;6.87;6.30;;;;;;;6.67;99.74;99650.44;5070573;28;20278;-67
2022/04/04 00:53:26;;;;;;;8.63;6.80;;;;;;;6.64;99.36;99666.63;5070689;28;20196;-66
2022/04/04 00:55:52;;;;;;;8.00;7.33;;;;;;;6.62;99.41;99672.59;5074084;28;20204;-67
2022/04/04 00:58:20;;;;;;;8.33;7.57;;;;;;;6.61;100.00;99670.91;5075006;28;20225;-68
2022/04/04 01:00:48;;;;;;;6.80;6.27;;;;;;;6.61;100.00;99665.81;5074610;28;20196;-66
2022/04/04 01:03:16;;;;;;;7.90;6.50;;;;;;;6.54;99.97;99659.06;5074777;28;20207;-68
2022/04/04 01:05:44;;;;;;;7.53;6.80;;;;;;;6.65;100.00;99667.47;5074998;28;20195;-67
2022/04/04 01:08:12;;;;;;;8.03;6.43;;;;;;;6.65;99.34;99667.47;5074718;28;20226;-67
2022/04/04 01:10:41;;;;;;;7.60;6.80;;;;;;;6.61;98.93;99669.19;5074788;28;20691;-67
2022/04/04 01:13:08;;;;;;;7.97;7.23;;;;;;;6.63;98.80;99669.16;5074511;28;20238;-67
2022/04/04 01:15:35;;;;;;;11.33;7.67;;;;;;;6.60;99.14;99670.03;5074570;28;20254;-67
2022/04/04 01:18:03;;;;;;;7.37;6.63;;;;;;;6.60;99.83;99671.75;5074215;28;20295;-67
2022/04/04 01:20:30;;;;;;;7.60;7.10;;;;;;;6.54;100.00;99656.53;5074632;28;20290;-67
2022/04/04 01:22:56;;;;;;;9.50;7.00;;;;;;;6.58;100.00;99676.03;5074164;28;20237;-67
2022/04/04 01:25:26;;;;;;;6.97;6.37;;;;;;;6.59;100.00;99672.63;5074466;28;20211;-67
2022/04/04 01:27:54;;;;;;;8.43;7.43;;;;;;;6.60;100.00;99676.84;5074295;28;20209;-67
2022/04/04 01:30:22;;;;;;;7.97;7.30;;;;;;;6.63;100.00;99684.44;5074296;28;20214;-68
2022/04/04 01:32:49;;;;;;;9.00;7.30;;;;;;;6.65;100.00;99685.28;5074255;28;20200;-67
2022/04/04 01:35:17;;;;;;;8.87;7.97;;;;;;;6.68;100.00;99687.81;5074040;28;20200;-67
2022/04/04 01:37:44;;;;;;;7.70;7.10;;;;;;;6.62;99.72;99698.06;5074330;28;20279;-68
2022/04/04 01:40:11;;;;;;;7.37;6.77;;;;;;;6.61;99.02;99693.81;5072417;28;20294;-67
2022/04/04 01:42:40;;;;;;;7.57;6.97;;;;;;;6.60;96.86;99695.53;5073927;28;20215;-67
2022/04/04 01:45:09;;;;;;;6.53;5.90;;;;;;;6.59;95.16;99690.44;5073674;28;20208;-66
2022/04/04 01:47:36;;;;;;;6.53;6.07;;;;;;;6.53;94.67;99700.66;5073899;28;20284;-68
2022/04/04 01:50:05;;;;;;;8.20;7.37;;;;;;;6.49;92.80;99699.88;5073802;28;20294;-67
2022/04/04 01:52:32;;;;;;;6.10;5.57;;;;;;;6.39;92.87;99697.44;5073850;28;20200;-66
2022/04/04 01:54:58;;;;;;;6.83;6.23;;;;;;;6.39;92.28;99707.59;5073708;28;20196;-67
2022/04/04 01:57:26;;;;;;;6.67;6.13;;;;;;;6.35;91.20;99714.44;5073638;28;20227;-67
2022/04/04 01:59:54;;;;;;;6.73;6.20;;;;;;;6.19;91.04;99708.63;5073783;28;20291;-66
2022/04/04 02:02:21;;;;;;;5.27;4.97;;;;;;;6.18;90.64;99712.00;5073421;28;20215;-67
2022/04/04 02:04:48;;;;;;;7.33;6.63;;;;;;;6.16;90.52;99708.63;5073712;28;20291;-62
2022/04/04 02:07:15;;;;;;;7.37;5.17;;;;;;;6.15;90.46;99709.50;5073368;28;20196;-61
2022/04/04 02:09:42;;;;;;;6.80;6.20;;;;;;;6.10;89.79;99698.50;5073371;28;20215;-62
2022/04/04 02:12:10;;;;;;;6.53;6.13;;;;;;;6.08;89.89;99695.09;5074111;28;20210;-59
2022/04/04 02:14:37;;;;;;;6.37;5.77;;;;;;;6.10;89.67;99698.50;5073753;28;20663;-59
2022/04/04 02:17:06;;;;;;;5.70;5.40;;;;;;;6.01;90.52;99690.91;5073633;28;20649;-58
2022/04/04 02:19:33;;;;;;;6.80;6.10;;;;;;;6.05;90.53;99701.91;5073142;28;20203;-60
2022/04/04 02:22:00;;;;;;;6.57;5.97;;;;;;;6.03;90.64;99703.66;5073342;28;20767;-59
2022/04/04 02:24:27;;;;;;;6.30;5.90;;;;;;;5.96;90.63;99700.28;5073242;28;20283;-59
2022/04/04 02:26:53;;;;;;;6.60;5.97;;;;;;;5.91;89.58;99702.03;5073326;28;20660;-58
2022/04/04 02:29:20;;;;;;;5.63;5.23;;;;;;;5.84;90.18;99700.34;5073095;28;20212;-58
2022/04/04 02:31:47;;;;;;;5.37;5.07;;;;;;;5.70;89.20;99692.78;5073588;28;20196;-58
2022/04/04 02:34:15;;;;;;;6.30;5.70;;;;;;;5.66;89.20;99703.84;5070671;28;20203;-58
2022/04/04 02:36:42;;;;;;;5.00;4.60;;;;;;;5.70;89.55;99713.16;5072756;28;20215;-57
2022/04/04 02:39:12;;;;;;;5.90;5.50;;;;;;;5.62;90.04;99708.97;5071910;28;20371;-58
2022/04/04 02:41:39;;;;;;;5.07;4.77;;;;;;;5.52;90.49;99717.50;5067919;28;20192;-59
2022/04/04 02:44:06;;;;;;;5.03;4.63;;;;;;;5.47;90.90;99717.50;5073006;28;20207;-58
2022/04/04 02:46:34;;;;;;;5.33;4.83;;;;;;;5.42;90.91;99718.38;5073272;28;20204;-58
2022/04/04 02:49:01;;;;;;;5.40;5.10;;;;;;;5.37;91.15;99722.63;5072787;28;20216;-58
2022/04/04 02:51:30;;;;;;;6.67;5.17;;;;;;;5.37;91.30;99727.69;5072926;28;20557;-59
2022/04/04 02:53:56;;;;;;;5.23;4.90;;;;;;;5.37;92.43;99727.69;5072850;28;20207;-58
2022/04/04 02:56:33;;;;;;;5.67;5.03;;;;;;;5.34;92.69;99725.19;5072911;28;20291;-59
2022/04/04 02:59:01;;;;;;;5.47;4.97;;;;;;;5.33;93.02;99721.81;5069952;28;20703;-59
2022/04/04 03:01:29;;;;;;;6.37;5.87;;;;;;;5.33;93.48;99710.81;5072698;28;20582;-59
2022/04/04 03:03:56;;;;;;;5.87;5.37;;;;;;;5.37;93.47;99718.38;5072693;28;20207;-58
2022/04/04 03:06:23;;;;;;;4.90;4.47;;;;;;;5.47;92.11;99714.09;5072473;28;20635;-59
2022/04/04 03:08:52;;;;;;;5.13;4.73;;;;;;;5.50;91.03;99711.53;5072437;28;20598;-66
2022/04/04 03:11:19;;;;;;;5.93;4.70;;;;;;;5.51;90.72;99705.63;5072486;28;20200;-67
2022/04/04 03:13:46;;;;;;;6.03;5.53;;;;;;;5.61;91.11;99712.34;5072175;28;20196;-67
2022/04/04 03:16:14;;;;;;;5.83;5.47;;;;;;;5.56;91.21;99719.13;5072406;28;20287;-67
2022/04/04 03:18:42;;;;;;;4.83;4.43;;;;;;;5.62;92.04;99730.13;5071402;28;20283;-66
2022/04/04 03:21:09;;;;;;;6.07;5.27;;;;;;;5.61;91.97;99732.69;5072177;28;20627;-67
2022/04/04 03:23:39;;;;;;;5.47;5.07;;;;;;;5.56;92.00;99729.31;5072290;28;20310;-66
2022/04/04 03:26:09;;;;;;;5.23;4.83;;;;;;;5.58;92.00;99736.09;5072113;28;20249;-67
2022/04/04 03:28:36;;;;;;;5.40;4.57;;;;;;;5.60;91.84;99736.09;5069616;28;20212;-67
2022/04/04 03:31:04;;;;;;;5.53;5.13;;;;;;;5.64;90.81;99737.75;5072042;28;20572;-67
2022/04/04 03:33:31;;;;;;;4.60;4.30;;;;;;;5.64;90.40;99742.84;5071021;28;20684;-67
2022/04/04 03:35:58;;;;;;;7.03;4.27;;;;;;;5.66;90.58;99741.97;5070920;28;20211;-67
2022/04/04 03:38:25;;;;;;;5.17;4.83;;;;;;;5.65;90.16;99747.09;5071698;28;20215;-67
2022/04/04 03:40:53;;;;;;;5.20;4.80;;;;;;;5.70;90.62;99753.00;5071528;28;20207;-68
2022/04/04 03:43:21;;;;;;;4.80;4.50;;;;;;;5.71;90.08;99754.69;5071781;28;20200;-68
2022/04/04 03:45:48;;;;;;;4.30;4.10;;;;;;;5.77;90.14;99760.59;5071405;28;20286;-67
2022/04/04 03:48:16;;;;;;;4.83;4.43;;;;;;;5.72;89.28;99756.34;5071589;28;20199;-67
2022/04/04 03:50:45;;;;;;;78.97;29.53;;;;;;;5.56;88.38;99742.03;5071413;28;20306;-67
2022/04/04 03:53:12;;;;;;;24.17;15.57;;;;;;;5.71;88.64;99764.88;5071744;28;20196;-67
2022/04/04 03:55:40;;;;;;;8.37;7.67;;;;;;;5.75;87.79;99766.53;5071402;28;20238;-66
2022/04/04 03:58:09;;;;;;;4.93;4.67;;;;;;;5.72;88.01;99771.63;5071419;28;20200;-66
2022/04/04 04:00:38;;;;;;;5.13;4.63;;;;;;;5.77;87.70;99764.84;5071298;28;20203;-66
2022/04/04 04:03:05;;;;;;;5.13;4.73;;;;;;;5.73;87.91;99770.78;5070053;28;20196;-67
2022/04/04 04:05:32;;;;;;;4.93;4.63;;;;;;;5.76;87.25;99774.16;5071447;28;20203;-67
2022/04/04 04:07:59;;;;;;;5.47;4.77;;;;;;;5.81;88.46;99772.44;5071173;28;20622;-67
2022/04/04 04:10:26;;;;;;;6.53;5.80;;;;;;;5.86;87.49;99790.25;5071224;28;20747;-67
2022/04/04 04:12:53;;;;;;;5.53;5.10;;;;;;;5.87;86.65;99788.56;5071065;28;20578;-66
2022/04/04 04:15:23;;;;;;;4.83;4.57;;;;;;;5.90;86.93;99794.47;5071359;28;20195;-68
2022/04/04 04:17:52;;;;;;;5.20;4.83;;;;;;;5.93;86.86;99798.69;5068914;28;20703;-67
2022/04/04 04:20:22;;;;;;;3.87;3.57;;;;;;;5.93;85.86;99786.81;5071135;28;20261;-67
2022/04/04 04:22:52;;;;;;;4.70;4.00;;;;;;;5.95;86.50;99804.63;5070461;28;20315;-66
2022/04/04 04:25:19;;;;;;;4.00;3.80;;;;;;;5.95;85.76;99790.19;5070909;28;20561;-67
2022/04/04 04:27:47;;;;;;;3.63;3.43;;;;;;;6.06;85.80;99808.81;5071041;28;20232;-67
2022/04/04 04:30:15;;;;;;;4.10;3.90;;;;;;;6.11;85.50;99817.25;5069136;28;20227;-66
2022/04/04 04:32:44;;;;;;;5.10;4.80;;;;;;;6.00;86.07;99788.50;5070049;28;20203;-66
2022/04/04 04:35:13;;;;;;;4.40;4.10;;;;;;;6.24;85.13;99821.41;5070185;28;20207;-66
2022/04/04 04:37:40;;;;;;;3.63;3.43;;;;;;;6.23;84.53;99818.91;5070904;28;20200;-66
2022/04/04 04:40:08;;;;;;;4.07;3.87;;;;;;;6.37;85.27;99823.88;5070598;28;20286;-67
2022/04/04 04:42:36;;;;;;;4.70;4.30;;;;;;;6.53;84.64;99839.06;5071037;28;20572;-67
2022/04/04 04:45:04;;;;;;;5.57;5.13;;;;;;;6.56;84.20;99843.31;5070909;28;20254;-58
2022/04/04 04:47:32;;;;;;;5.80;5.30;;;;;;;6.58;84.07;99844.13;5067221;28;20283;-58
2022/04/04 04:50:00;;;;;;;4.87;4.50;;;;;;;6.59;83.26;99843.28;5071410;28;20235;-58
2022/04/04 04:52:29;;;;;;;4.83;4.53;;;;;;;6.62;82.88;99854.31;5070846;28;20655;-58
2022/04/04 04:54:56;;;;;;;5.03;4.70;;;;;;;6.59;82.32;99849.19;5071252;28;20616;-58
2022/04/04 04:57:23;;;;;;;3.43;3.23;;;;;;;6.62;82.05;99854.31;5069535;28;20235;-58
2022/04/04 04:59:50;;;;;;;3.80;3.60;;;;;;;6.61;81.81;99867.03;5071111;28;20545;-58
2022/04/04 05:02:17;;;;;;;4.13;3.83;;;;;;;6.63;81.76;99867.84;5070813;28;20212;-58
2022/04/04 05:04:44;;;;;;;5.37;4.97;;;;;;;6.54;80.75;99853.50;5070896;28;20390;-58
2022/04/04 05:07:13;;;;;;;4.23;4.03;;;;;;;6.67;80.33;99864.44;5070560;28;20200;-58
2022/04/04 05:09:41;;;;;;;4.70;4.40;;;;;;;6.66;81.32;99863.59;5070992;28;20695;-59
2022/04/04 05:12:09;;;;;;;4.87;4.57;;;;;;;6.68;81.64;99877.19;5068122;28;20200;-59
2022/04/04 05:14:37;;;;;;;5.03;4.63;;;;;;;6.73;81.53;99869.47;5070579;28;20200;-59
2022/04/04 05:17:07;;;;;;;3.60;3.40;;;;;;;6.75;81.25;99862.69;5070700;28;20219;-59
2022/04/04 05:19:34;;;;;;;4.03;3.77;;;;;;;6.92;81.60;99876.13;5068438;28;20279;-59
2022/04/04 05:22:00;;;;;;;4.03;3.73;;;;;;;7.02;82.47;99869.25;5070557;28;20235;-59
2022/04/04 05:24:29;;;;;;;4.97;4.70;;;;;;;7.09;80.71;99874.31;5070601;28;20294;-67
2022/04/04 05:26:58;;;;;;;4.20;4.00;;;;;;;7.09;79.97;99878.56;5070390;28;20196;-62
2022/04/04 05:29:26;;;;;;;4.07;3.80;;;;;;;7.18;81.23;99884.41;5069492;28;20656;-62
2022/04/04 05:31:54;;;;;;;4.30;4.10;;;;;;;7.17;79.66;99854.66;5069324;28;20627;-62
2022/04/04 05:34:21;;;;;;;4.10;3.80;;;;;;;7.53;78.02;99885.81;5070313;28;20196;-62
2022/04/04 05:36:48;;;;;;;3.40;3.20;;;;;;;7.60;77.11;99874.66;5070519;28;20553;-62
2022/04/04 05:39:16;;;;;;;6.37;3.90;;;;;;;7.85;77.03;99884.56;5070284;28;20223;-62
2022/04/04 05:41:43;;;;;;;5.17;4.77;;;;;;;8.08;76.97;99902.16;5072869;28;20207;-62
2022/04/04 05:44:11;;;;;;;4.90;4.50;;;;;;;8.11;76.79;99891.91;5073680;28;20200;-62
2022/04/04 05:46:38;;;;;;;3.77;3.57;;;;;;;8.15;76.20;99908.91;5073843;28;20732;-62
2022/04/04 05:49:05;;;;;;;3.57;3.37;;;;;;;8.05;75.49;99883.47;5073780;28;20314;-62
2022/04/04 05:51:33;;;;;;;3.40;3.20;;;;;;;8.10;74.58;99905.56;5074150;28;20579;-62
2022/04/04 05:54:01;;;;;;;3.53;3.43;;;;;;;8.09;74.02;99901.31;5073648;28;20207;-62
2022/04/04 05:56:28;;;;;;;4.50;4.30;;;;;;;8.12;75.06;99893.63;5074042;28;20659;-62
2022/04/04 05:58:55;;;;;;;3.77;3.57;;;;;;;8.33;73.32;99905.31;5073874;28;20647;-62
2022/04/04 06:01:23;;;;;;;4.00;3.80;;;;;;;8.49;73.59;99908.50;5073563;28;20195;-62
2022/04/04 06:03:50;;;;;;;4.07;3.73;;;;;;;8.54;72.88;99907.56;5073592;28;20292;-62
2022/04/04 06:06:17;;;;;;;4.23;4.03;;;;;;;8.66;72.10;99906.56;5073616;28;20235;-62
2022/04/04 06:08:44;;;;;;;3.70;3.50;;;;;;;8.86;71.54;99900.28;5073634;28;20719;-62
2022/04/04 06:11:11;;;;;;;3.80;3.60;;;;;;;9.04;70.75;99896.59;5073418;28;20771;-61
2022/04/04 06:13:38;;;;;;;3.63;3.43;;;;;;;9.20;69.48;99894.63;5073599;28;20250;-61
2022/04/04 06:16:08;;;;;;;3.80;3.60;;;;;;;9.46;68.48;99903.56;5073404;28;20208;-61
2022/04/04 06:18:37;;;;;;;3.70;3.40;;;;;;;9.52;67.72;99901.75;5071360;28;20196;-61
2022/04/04 06:21:03;;;;;;;3.67;3.57;;;;;;;9.43;66.83;99908.69;5073182;28;20196;-61
2022/04/04 06:23:33;;;;;;;3.10;3.00;;;;;;;9.52;67.48;99912.84;5071880;28;20813;-61
2022/04/04 06:26:00;;;;;;;3.33;3.23;;;;;;;9.61;66.88;99912.66;5073095;28;20199;-61
2022/04/04 06:28:31;;;;;;;3.10;2.90;;;;;;;9.50;66.54;99915.41;5072257;28;20196;-61
2022/04/04 06:30:58;;;;;;;3.47;3.27;;;;;;;9.59;66.68;99921.25;5070755;28;20730;-61
2022/04/04 06:33:26;;;;;;;3.23;3.03;;;;;;;9.65;68.15;99918.56;5073097;28;20209;-61
2022/04/04 06:35:54;;;;;;;3.67;3.47;;;;;;;9.66;66.13;99915.16;5072981;28;20204;-61
2022/04/04 06:38:21;;;;;;;3.23;3.03;;;;;;;9.72;67.80;99922.72;5073101;28;20203;-61
2022/04/04 06:40:51;;;;;;;2.80;2.70;;;;;;;9.89;64.88;99918.09;5073070;28;20687;-61
2022/04/04 06:43:19;;;;;;;4.30;3.57;;;;;;;9.91;65.01;99936.88;5072736;28;20196;-61
2022/04/04 06:45:46;;;;;;;5.70;5.30;;;;;;;9.92;65.62;99933.41;5073090;28;20231;-61
2022/04/04 06:48:13;;;;;;;3.20;3.10;;;;;;;10.06;65.56;99935.72;5072976;28;20204;-61
2022/04/04 06:50:40;;;;;;;3.00;2.87;;;;;;;10.11;63.79;99939.91;5072689;28;20307;-61
2022/04/04 06:53:09;;;;;;;2.83;2.73;;;;;;;10.11;64.60;99924.53;5071749;28;20279;-61
2022/04/04 06:55:36;;;;;;;3.10;2.90;;;;;;;10.27;65.65;99930.22;5072658;28;20640;-61
2022/04/04 06:58:03;;;;;;;3.17;3.03;;;;;;;10.34;64.03;99912.09;5072598;28;20299;-61
2022/04/04 07:00:30;;;;;;;2.77;2.67;;;;;;;10.50;66.22;99933.97;5072564;28;20246;-62
2022/04/04 07:02:58;;;;;;;3.23;2.93;;;;;;;10.67;64.84;99930.19;5072527;28;20196;-63
2022/04/04 07:05:25;;;;;;;3.43;3.27;;;;;;;10.83;64.96;99917.00;5072269;28;20199;-61
2022/04/04 07:07:52;;;;;;;4.13;3.77;;;;;;;11.14;64.96;99927.38;5072510;28;20291;-61
2022/04/04 07:10:20;;;;;;;4.03;3.83;;;;;;;11.22;65.59;99912.63;5072138;28;20327;-63
2022/04/04 07:12:47;;;;;;;3.03;2.90;;;;;;;11.22;62.84;99930.59;5072182;28;20239;-61
2022/04/04 07:15:17;;;;;;;3.50;3.40;;;;;;;11.12;63.17;99916.31;5072210;28;20208;-62
2022/04/04 07:17:44;;;;;;;3.37;3.17;;;;;;;11.04;63.37;99925.91;5072296;28;20196;-63
2022/04/04 07:20:12;;;;;;;3.27;3.17;;;;;;;11.13;64.91;99925.69;5071872;28;20253;-61
2022/04/04 07:22:44;;;;;;;3.80;3.50;;;;;;;11.29;65.25;99911.63;5071803;28;20239;-64
2022/04/04 07:25:14;;;;;;;3.73;3.23;;;;;;;11.48;64.63;99923.09;5071602;28;20568;-62
2022/04/04 07:27:52;;;;;;;3.60;3.40;;;;;;;11.57;63.62;99925.44;5071155;28;20211;-64
2022/04/04 07:30:20;;;;;;;3.80;3.50;;;;;;;11.53;61.41;99905.03;5072373;28;20584;-60
2022/04/04 07:32:48;;;;;;;3.50;3.20;;;;;;;11.56;64.40;99926.34;5072202;28;20671;-60
2022/04/04 07:35:24;;;;;;;4.87;4.57;;;;;;;11.77;63.89;99924.09;5071802;28;20668;-59
2022/04/04 07:37:51;;;;;;;5.23;4.83;;;;;;;11.75;63.16;99933.56;5072122;28;20732;-59
2022/04/04 07:40:20;;;;;;;4.03;3.83;;;;;;;11.78;60.89;99941.19;5071820;28;20188;-59
2022/04/04 07:42:50;;;;;;;4.23;3.90;;;;;;;11.87;61.14;99940.94;5072025;28;20227;-58
2022/04/04 07:45:18;;;;;;;4.73;4.33;;;;;;;12.01;61.34;99938.84;5071731;28;20212;-60
2022/04/04 07:47:46;;;;;;;5.13;4.83;;;;;;;11.93;61.72;99926.22;5071856;28;20192;-64
2022/04/04 07:50:16;;;;;;;3.97;3.77;;;;;;;11.77;62.50;99903.53;5071562;28;20223;-59
2022/04/04 07:52:43;;;;;;;3.60;3.30;;;;;;;12.04;62.42;99941.34;5071617;28;20208;-59
2022/04/04 07:55:11;;;;;;;3.80;3.60;;;;;;;12.04;63.81;99943.91;5071598;28;20728;-58
2022/04/04 07:57:39;;;;;;;3.40;3.20;;;;;;;12.08;62.74;99935.25;5071582;28;20196;-58
2022/04/04 08:00:09;;;;;;;3.70;3.50;;;;;;;12.29;62.53;99954.34;5068747;28;20196;-58
2022/04/04 08:02:36;;;;;;;3.60;3.40;;;;;;;12.47;59.26;99939.22;5071666;28;20223;-58
2022/04/04 08:05:04;;;;;;;3.53;3.33;;;;;;;12.72;60.90;99941.09;5071536;28;20212;-58
2022/04/04 08:07:31;;;;;;;3.67;3.37;;;;;;;12.85;59.09;99940.66;5071660;28;20242;-58
2022/04/04 08:09:58;;;;;;;2.77;2.67;;;;;;;13.00;59.52;99931.63;5071373;28;20196;-58
2022/04/04 08:12:26;;;;;;;3.70;3.50;;;;;;;13.23;55.78;99931.75;5071502;28;20213;-58
2022/04/04 08:14:53;;;;;;;2.90;2.80;;;;;;;13.32;58.23;99921.16;5068830;28;20204;-59
2022/04/04 08:17:21;;;;;;;3.30;2.70;;;;;;;13.54;55.05;99929.84;5071253;28;20230;-59
2022/04/04 08:19:50;;;;;;;3.23;3.07;;;;;;;13.76;54.21;99936.88;5069252;28;20743;-59
2022/04/04 08:22:16;;;;;;;3.23;3.13;;;;;;;13.91;53.78;99936.31;5071312;28;20315;-59
2022/04/04 08:24:43;;;;;;;3.53;3.33;;;;;;;14.03;55.92;99933.31;5070332;28;20208;-59
2022/04/04 08:27:11;;;;;;;3.33;3.20;;;;;;;13.98;57.58;99904.28;5071035;28;21277;-59
2022/04/04 08:29:37;;;;;;;3.57;3.10;;;;;;;14.23;52.59;99930.00;5071307;28;20573;-59
2022/04/04 08:32:05;;;;;;;3.00;2.90;;;;;;;14.18;54.61;99912.16;5071110;28;20212;-59
2022/04/04 08:34:34;;;;;;;3.23;3.03;;;;;;;14.32;55.11;99927.09;5071130;28;20204;-63
2022/04/04 08:37:01;;;;;;;2.77;2.67;;;;;;;14.41;54.60;99922.47;5068562;28;20223;-63
2022/04/04 08:39:28;;;;;;;2.60;2.50;;;;;;;14.39;54.27;99907.94;5070862;28;20651;-65
2022/04/04 08:41:57;;;;;;;3.00;2.80;;;;;;;14.42;52.91;99902.66;5070780;28;20196;-64
2022/04/04 08:44:25;;;;;;;3.50;3.20;;;;;;;14.57;51.02;99905.50;5071075;28;20219;-64
2022/04/04 08:46:52;;;;;;;2.97;2.77;;;;;;;14.83;51.94;99898.50;5070694;28;20211;-64
2022/04/04 08:49:20;;;;;;;3.23;3.03;;;;;;;14.84;53.69;99900.16;5070652;28;20230;-64
2022/04/04 08:51:49;;;;;;;2.97;2.77;;;;;;;14.94;52.06;99896.31;5071066;28;20215;-64
2022/04/04 08:54:16;;;;;;;2.83;2.73;;;;;;;14.99;51.02;99889.25;5070939;28;20291;-65
2022/04/04 08:56:44;;;;;;;2.60;2.50;;;;;;;15.07;52.50;99884.59;5070546;28;20196;-64
2022/04/04 08:59:11;;;;;;;3.40;3.30;;;;;;;15.16;51.16;99886.81;5070988;28;20554;-65
2022/04/04 09:01:38;;;;;;;2.63;2.53;;;;;;;15.02;49.39;99879.66;5070733;28;20226;-63
2022/04/04 09:04:16;;;;;;;2.80;2.70;;;;;;;14.99;51.23;99879.75;5070500;28;20200;-63
2022/04/04 09:06:52;;;;;;;2.77;2.67;;;;;;;15.17;50.64;99867.84;5070543;28;20199;-63
2022/04/04 09:09:20;;;;;;;2.63;2.43;;;;;;;15.19;47.91;99871.19;5071071;28;20210;-63
2022/04/04 09:12:06;;;;;;;2.70;2.60;;;;;;;15.37;50.63;99856.66;5070507;28;20595;-63
2022/04/04 09:14:37;;;;;;;2.40;2.30;;;;;;;15.35;49.27;99851.56;5070557;28;20199;-65
2022/04/04 09:17:07;;;;;;;2.47;2.37;;;;;;;15.50;51.90;99850.94;5073079;28;20259;-63
2022/04/04 09:19:34;;;;;;;2.80;2.67;;;;;;;15.53;46.37;99840.47;5072019;28;20652;-63
2022/04/04 09:22:08;;;;;;;3.13;3.00;;;;;;;15.26;46.69;99823.53;5073591;28;20659;-64
2022/04/04 09:24:49;;;;;;;2.67;2.57;;;;;;;15.49;49.19;99833.75;5074284;28;20291;-63
2022/04/04 09:27:21;;;;;;;2.87;2.77;;;;;;;15.51;48.99;99811.25;5073663;28;20211;-64
2022/04/04 09:29:49;;;;;;;3.03;2.93;;;;;;;15.80;49.32;99827.25;5073175;28;20265;-64
2022/04/04 09:32:16;;;;;;;2.87;2.70;;;;;;;15.94;44.96;99824.88;5074062;28;20226;-63
2022/04/04 09:34:56;;;;;;;2.50;2.40;;;;;;;16.01;44.58;99818.53;5074267;28;20291;-64
2022/04/04 09:37:26;;;;;;;2.90;2.73;;;;;;;16.15;44.00;99806.66;5074191;28;20198;-64
2022/04/04 09:40:02;;;;;;;2.63;2.53;;;;;;;16.33;47.77;99807.53;5074154;28;20234;-64
2022/04/04 09:42:31;;;;;;;2.33;2.23;;;;;;;16.45;46.76;99808.69;5074130;28;20279;-64
2022/04/04 09:45:00;;;;;;;2.97;2.87;;;;;;;16.46;49.97;99793.09;5073748;28;20204;-64
2022/04/04 09:47:49;;;;;;;2.37;2.27;;;;;;;16.42;46.07;99796.72;5074005;28;20753;-64
2022/04/04 09:50:47;;;;;;;2.60;2.50;;;;;;;16.59;45.05;99778.69;5073867;28;20669;-64
2022/04/04 09:53:17;;;;;;;2.77;2.67;;;;;;;16.43;45.27;99771.69;5072330;28;20254;-64
2022/04/04 09:55:46;;;;;;;2.87;2.77;;;;;;;16.22;42.83;99778.72;5073961;28;20299;-64
2022/04/04 09:58:15;;;;;;;2.73;2.63;;;;;;;16.10;43.12;99774.13;5073778;28;20640;-64
2022/04/04 10:00:44;;;;;;;2.60;2.50;;;;;;;16.26;45.65;99769.91;5073888;28;20680;-64
2022/04/04 10:03:12;;;;;;;2.37;2.27;;;;;;;16.18;43.23;99777.22;5073554;28;20196;-64
2022/04/04 10:05:42;;;;;;;2.63;2.53;;;;;;;16.23;44.31;99764.88;5073853;28;20219;-64
2022/04/04 10:08:10;;;;;;;2.27;2.17;;;;;;;16.24;45.47;99762.22;5073469;28;20274;-64
2022/04/04 10:10:39;;;;;;;2.27;2.17;;;;;;;15.96;42.33;99767.00;5073519;28;20306;-64
2022/04/04 10:13:06;;;;;;;2.60;2.50;;;;;;;15.24;44.21;99765.94;5073533;28;20196;-64
2022/04/04 10:15:36;;;;;;;2.57;2.47;;;;;;;15.16;42.72;99755.09;5073282;28;20207;-64
2022/04/04 10:18:03;;;;;;;2.63;2.47;;;;;;;15.48;45.08;99769.22;5072713;28;20204;-64
2022/04/04 10:20:30;;;;;;;2.50;2.40;;;;;;;15.47;45.39;99752.88;5072014;28;20300;-64
2022/04/04 10:22:59;;;;;;;3.07;2.97;;;;;;;15.05;43.58;99747.00;5073234;28;20220;-64
2022/04/04 10:25:27;;;;;;;2.50;2.40;;;;;;;14.97;43.61;99757.63;5073415;28;20291;-64
2022/04/04 10:27:59;;;;;;;2.77;2.57;;;;;;;15.08;44.00;99746.84;5071287;28;20287;-64
2022/04/04 10:30:34;;;;;;;2.63;2.43;;;;;;;15.34;46.58;99723.31;5073124;28;20201;-64
2022/04/04 10:33:03;;;;;;;3.20;3.10;;;;;;;15.77;49.14;99744.69;5073218;28;20188;-64
2022/04/04 10:35:32;;;;;;;2.53;2.43;;;;;;;15.95;46.99;99741.22;5073097;28;20204;-65
2022/04/04 10:38:03;;;;;;;2.77;2.63;;;;;;;16.04;46.83;99733.88;5072944;28;20196;-63
2022/04/04 10:40:31;;;;;;;2.90;2.80;;;;;;;15.96;47.35;99719.66;5072928;28;20200;-63
2022/04/04 10:43:10;;;;;;;2.80;2.70;;;;;;;16.23;44.46;99733.84;5072846;28;20293;-64
2022/04/04 10:45:54;;;;;;;2.50;2.40;;;;;;;16.35;44.09;99720.31;5073005;28;20199;-63
2022/04/04 10:48:27;;;;;;;2.73;2.63;;;;;;;16.39;43.12;99724.41;5072351;28;20200;-63
2022/04/04 10:50:54;;;;;;;2.93;2.73;;;;;;;16.35;42.48;99712.53;5072688;28;20311;-63
2022/04/04 10:53:38;;;;;;;2.30;2.20;;;;;;;16.39;44.36;99714.06;5072902;28;20283;-63
2022/04/04 10:56:06;;;;;;;2.40;2.30;;;;;;;16.24;43.49;99709.66;5072605;28;20205;-63
2022/04/04 10:58:34;;;;;;;2.17;2.07;;;;;;;15.88;43.81;99701.06;5072683;28;20204;-63
2022/04/04 11:01:07;;;;;;;2.63;2.53;;;;;;;15.75;43.72;99693.03;5072584;28;20569;-62
2022/04/04 11:03:36;;;;;;;2.47;2.27;;;;;;;15.70;44.17;99692.41;5072633;28;20689;-62
2022/04/04 11:09:04;;;;;;;2.80;2.70;;;;;;;15.88;44.41;99701.06;5036470;28;20203;-62
2022/04/04 11:11:42;;;;;;;2.57;2.40;;;;;;;15.83;44.07;99696.13;5072385;28;20252;-62
2022/04/04 11:14:10;;;;;;;3.17;2.97;;;;;;;15.92;44.65;99697.41;5072338;28;20261;-62
2022/04/04 11:17:30;;;;;;;2.73;2.63;;;;;;;16.10;44.78;99694.78;5070345;28;20572;-62
2022/04/04 11:20:02;;;;;;;2.63;2.50;;;;;;;15.96;44.09;99684.25;5069724;28;20597;-63
2022/04/04 11:22:30;;;;;;;2.63;2.53;;;;;;;16.17;47.17;99682.41;5072252;28;20229;-63
2022/04/04 11:25:03;;;;;;;2.50;2.40;;;;;;;16.26;45.83;99666.44;5072013;28;20235;-63
2022/04/04 11:27:31;;;;;;;3.00;2.90;;;;;;;16.37;42.96;99684.03;5072276;28;20262;-63
2022/04/04 11:29:59;;;;;;;3.30;3.10;;;;;;;16.32;43.39;99684.22;5071874;28;20192;-63
2022/04/04 11:32:30;;;;;;;3.03;2.93;;;;;;;16.28;42.60;99673.19;5071925;28;20212;-63
2022/04/04 11:35:01;;;;;;;2.67;2.57;;;;;;;16.41;43.22;99673.47;5071669;28;20203;-63
2022/04/04 11:37:29;;;;;;;3.20;2.77;;;;;;;16.62;43.33;99667.22;5071879;28;20204;-63
2022/04/04 11:40:03;;;;;;;3.30;3.20;;;;;;;16.23;44.68;99664.84;5071367;28;20203;-63
2022/04/04 11:42:40;;;;;;;3.30;3.20;;;;;;;16.14;45.33;99656.69;5071741;28;20223;-63
2022/04/04 11:45:09;;;;;;;3.20;3.10;;;;;;;16.25;45.81;99641.50;5071612;28;20192;-63
2022/04/04 11:47:40;;;;;;;3.40;3.20;;;;;;;16.24;45.54;99642.41;5071713;28;20287;-63